Time;durP1;ratioP1;P1;durP2;ratioP2;P2;SDS_P1;SDS_P2;PMS_P1;PMS_P2;Temp;Humidity;BMP_temperature;BMP_pressure;BME280_temperature;BME280_humidity;BME280_pressure;Samples;Min_cycle;Max_cycle;Signal;HPM_P1;HPM_P2
2023/09/11 00:01:31;;;;;;;25.13;12.38;;;21.60;99.90;;;;;;5067312;28;20041;-75
2023/09/11 00:03:57;;;;;;;19.77;12.52;;;21.60;99.90;;;;;;5068830;28;20133;-75
2023/09/11 00:06:25;;;;;;;22.15;13.35;;;21.60;99.90;;;;;;5068576;28;20041;-75
2023/09/11 00:08:51;;;;;;;25.70;12.75;;;21.50;99.90;;;;;;5060612;28;20090;-76
2023/09/11 00:11:17;;;;;;;22.23;12.35;;;21.50;99.90;;;;;;5068516;28;20036;-75
2023/09/11 00:13:45;;;;;;;21.48;12.65;;;21.50;99.90;;;;;;5068398;28;20040;-75
2023/09/11 00:16:11;;;;;;;22.27;12.57;;;21.50;99.90;;;;;;5068579;28;20048;-74
2023/09/11 00:18:37;;;;;;;22.33;12.77;;;21.50;99.90;;;;;;5067808;28;20119;-75
2023/09/11 00:21:03;;;;;;;26.15;13.73;;;21.50;99.90;;;;;;5072023;28;20071;-75
2023/09/11 00:23:29;;;;;;;24.83;12.93;;;21.40;99.90;;;;;;5062714;28;20029;-75
2023/09/11 00:25:55;;;;;;;20.23;13.48;;;21.50;99.90;;;;;;5048598;28;20045;-76
2023/09/11 00:28:20;;;;;;;27.17;12.50;;;21.40;99.90;;;;;;5065786;28;20678;-75
2023/09/11 00:30:46;;;;;;;28.02;12.85;;;21.40;99.90;;;;;;5067969;28;20511;-76
2023/09/11 00:33:12;;;;;;;29.90;12.95;;;21.40;99.90;;;;;;5068503;28;20049;-76
2023/09/11 00:35:44;;;;;;;27.38;12.70;;;21.40;99.90;;;;;;5066748;28;20051;-76
2023/09/11 00:38:11;;;;;;;23.98;11.90;;;21.40;99.90;;;;;;5068123;28;20048;-76
2023/09/11 00:40:36;;;;;;;26.85;12.57;;;21.40;99.90;;;;;;5065030;28;20563;-76
2023/09/11 00:43:02;;;;;;;25.92;12.73;;;21.40;99.90;;;;;;5066867;28;20040;-76
2023/09/11 00:45:28;;;;;;;24.55;12.40;;;21.40;99.90;;;;;;5068467;28;20041;-75
2023/09/11 00:47:55;;;;;;;24.42;13.25;;;21.30;99.90;;;;;;5049427;28;20048;-76
2023/09/11 00:50:22;;;;;;;24.30;11.95;;;21.30;99.90;;;;;;5068723;28;20106;-76
2023/09/11 00:52:49;;;;;;;22.98;12.73;;;21.30;99.90;;;;;;5063260;28;20051;-76
2023/09/11 00:55:15;;;;;;;21.40;11.82;;;21.30;99.90;;;;;;5053614;28;20044;-76
2023/09/11 00:57:42;;;;;;;27.15;12.27;;;21.30;99.90;;;;;;5065176;28;20127;-76
2023/09/11 01:00:15;;;;;;;22.40;12.52;;;21.30;99.90;;;;;;5067839;28;20044;-75
2023/09/11 01:02:41;;;;;;;24.40;12.05;;;21.30;99.90;;;;;;5033864;28;20080;-76
2023/09/11 01:05:08;;;;;;;30.63;13.02;;;21.30;99.90;;;;;;5067424;28;20086;-75
2023/09/11 01:07:35;;;;;;;20.80;11.45;;;21.30;99.90;;;;;;5064162;28;20121;-76
2023/09/11 01:10:05;;;;;;;23.95;11.48;;;21.30;99.90;;;;;;5067338;28;20046;-76
2023/09/11 01:12:35;;;;;;;26.73;12.30;;;21.20;99.90;;;;;;5067058;28;20119;-75
2023/09/11 01:15:03;;;;;;;22.73;12.10;;;21.30;99.90;;;;;;5066050;28;20044;-76
2023/09/11 01:17:46;;;;;;;21.88;11.27;;;21.20;99.90;;;;;;5065990;28;20091;-76
2023/09/11 01:20:49;;;;;;;21.65;12.38;;;21.20;99.90;;;;;;5065039;28;20048;-75
2023/09/11 01:23:44;;;;;;;19.30;12.27;;;21.20;99.90;;;;;;5060454;28;20048;-75
2023/09/11 01:26:11;;;;;;;25.70;12.13;;;21.20;99.90;;;;;;5066834;28;20052;-75
2023/09/11 01:29:06;;;;;;;26.48;11.98;;;21.20;99.90;;;;;;5060483;28;20080;-75
2023/09/11 01:31:34;;;;;;;25.20;11.68;;;21.20;99.90;;;;;;5065911;28;20052;-76
2023/09/11 01:34:01;;;;;;;17.20;11.20;;;21.20;99.90;;;;;;5065987;28;20052;-75
2023/09/11 01:36:27;;;;;;;24.92;11.82;;;21.10;99.90;;;;;;5066567;28;20417;-75
2023/09/11 01:38:53;;;;;;;25.95;12.52;;;21.10;99.90;;;;;;5060733;28;20039;-76
2023/09/11 01:41:20;;;;;;;22.67;11.90;;;21.10;99.90;;;;;;5067361;28;20181;-76
2023/09/11 01:43:48;;;;;;;20.83;12.02;;;21.10;99.90;;;;;;5067276;28;20048;-76
2023/09/11 01:46:17;;;;;;;27.73;12.07;;;21.10;99.90;;;;;;5064353;28;20611;-76
2023/09/11 01:48:44;;;;;;;25.88;12.63;;;21.10;99.90;;;;;;5054737;28;20175;-76
2023/09/11 01:51:15;;;;;;;20.27;12.23;;;21.10;99.90;;;;;;5054315;28;20048;-76
2023/09/11 01:53:41;;;;;;;26.10;12.82;;;21.10;99.90;;;;;;5067505;28;20056;-77
2023/09/11 01:56:08;;;;;;;27.52;13.23;;;21.10;99.90;;;;;;5066906;28;20048;-76
2023/09/11 01:58:34;;;;;;;30.00;12.15;;;21.00;99.90;;;;;;5066004;28;20132;-75
2023/09/11 02:01:00;;;;;;;23.67;11.75;;;21.00;99.90;;;;;;5066897;28;20045;-74
2023/09/11 02:03:27;;;;;;;21.42;12.55;;;21.00;99.90;;;;;;5066212;28;20036;-75
2023/09/11 02:05:54;;;;;;;21.73;12.07;;;21.00;99.90;;;;;;5065026;28;20043;-75
2023/09/11 02:08:20;;;;;;;23.77;12.60;;;20.90;99.90;;;;;;5066891;28;20048;-74
2023/09/11 02:10:49;;;;;;;25.77;12.32;;;20.90;99.90;;;;;;5052252;28;20138;-74
2023/09/11 02:13:15;;;;;;;20.77;12.27;;;20.90;99.90;;;;;;5067169;28;20144;-75
2023/09/11 02:15:40;;;;;;;23.85;12.32;;;20.80;99.90;;;;;;5067079;28;20140;-75
2023/09/11 02:18:08;;;;;;;36.38;12.43;;;20.80;99.90;;;;;;5066051;28;20505;-75
2023/09/11 02:20:34;;;;;;;22.95;12.38;;;20.80;99.90;;;;;;5064995;28;20520;-74
2023/09/11 02:22:59;;;;;;;24.10;12.00;;;20.80;99.90;;;;;;5065959;28;20094;-74
2023/09/11 02:25:26;;;;;;;27.48;12.23;;;20.80;99.90;;;;;;5066990;28;20137;-75
2023/09/11 02:27:51;;;;;;;23.80;12.52;;;20.80;99.90;;;;;;5065039;28;20504;-75
2023/09/11 02:30:17;;;;;;;29.95;11.90;;;20.70;99.90;;;;;;5066005;28;20094;-74
2023/09/11 02:32:46;;;;;;;27.42;11.90;;;20.70;99.90;;;;;;5065297;28;20064;-75
2023/09/11 02:35:11;;;;;;;27.10;12.35;;;20.70;99.90;;;;;;5063916;28;20044;-74
2023/09/11 02:37:37;;;;;;;23.88;12.95;;;20.70;99.90;;;;;;5065181;28;20559;-74
2023/09/11 02:40:04;;;;;;;22.08;11.68;;;20.70;99.90;;;;;;5065519;28;20797;-74
2023/09/11 02:42:30;;;;;;;25.92;12.73;;;20.60;99.90;;;;;;5049411;28;20099;-74
2023/09/11 02:44:55;;;;;;;23.13;12.57;;;20.60;99.90;;;;;;5051811;28;20344;-74
2023/09/11 02:47:21;;;;;;;30.17;13.57;;;20.60;99.90;;;;;;5055677;28;20097;-74
2023/09/11 02:49:47;;;;;;;33.03;13.95;;;20.60;99.90;;;;;;5046121;28;20048;-74
2023/09/11 02:52:15;;;;;;;28.77;11.98;;;20.60;99.90;;;;;;5052549;28;20052;-74
2023/09/11 02:54:41;;;;;;;29.63;12.63;;;20.60;99.90;;;;;;5061239;28;20760;-74
2023/09/11 02:57:06;;;;;;;28.52;12.10;;;20.50;99.90;;;;;;5058582;28;20049;-74
2023/09/11 02:59:35;;;;;;;23.70;12.10;;;20.50;99.90;;;;;;5063286;28;20831;-74
2023/09/11 03:02:01;;;;;;;27.92;13.50;;;20.50;99.90;;;;;;5069483;28;20044;-74
2023/09/11 03:04:26;;;;;;;28.88;12.45;;;20.50;99.90;;;;;;5058657;28;20041;-74
2023/09/11 03:06:52;;;;;;;30.55;12.70;;;20.50;99.90;;;;;;5064187;28;20120;-74
2023/09/11 03:09:18;;;;;;;27.63;12.38;;;20.50;99.90;;;;;;5050035;28;20076;-74
2023/09/11 03:11:43;;;;;;;29.45;12.82;;;20.50;99.90;;;;;;5051967;28;20076;-74
2023/09/11 03:14:11;;;;;;;25.20;12.07;;;20.50;99.90;;;;;;5059747;28;20087;-74
2023/09/11 03:16:43;;;;;;;28.73;13.70;;;20.50;99.90;;;;;;5050130;28;20136;-74
2023/09/11 03:19:10;;;;;;;31.20;12.20;;;20.50;99.90;;;;;;5053425;28;20073;-74
2023/09/11 03:21:36;;;;;;;24.08;11.63;;;20.50;99.90;;;;;;5068421;28;20075;-74
2023/09/11 03:24:02;;;;;;;29.95;12.60;;;20.50;99.90;;;;;;5068569;28;20459;-74
2023/09/11 03:26:28;;;;;;;25.42;11.73;;;20.50;99.90;;;;;;5060627;28;20105;-74
2023/09/11 03:28:54;;;;;;;34.90;13.07;;;20.50;99.90;;;;;;5054365;28;20390;-75
2023/09/11 03:31:20;;;;;;;26.02;12.23;;;20.50;99.90;;;;;;5049794;28;20425;-75
2023/09/11 03:33:46;;;;;;;27.88;12.88;;;20.50;99.90;;;;;;5058207;28;20151;-74
2023/09/11 03:36:16;;;;;;;24.27;12.35;;;20.50;99.90;;;;;;5079613;28;20037;-74
2023/09/11 03:38:42;;;;;;;26.35;12.02;;;20.50;99.90;;;;;;5049437;28;20156;-75
2023/09/11 03:41:09;;;;;;;29.98;12.20;;;20.50;99.90;;;;;;5045684;28;20494;-74
2023/09/11 03:43:35;;;;;;;23.65;11.30;;;20.50;99.90;;;;;;5063973;28;20051;-74
2023/09/11 03:46:02;;;;;;;25.98;12.00;;;20.40;99.90;;;;;;5065117;28;20037;-74
2023/09/11 03:48:28;;;;;;;28.35;12.55;;;20.40;99.90;;;;;;5065925;28;20044;-74
2023/09/11 03:50:55;;;;;;;23.73;13.45;;;20.40;99.90;;;;;;5067763;28;20040;-74
2023/09/11 03:53:21;;;;;;;31.08;12.30;;;20.40;99.90;;;;;;5069237;28;20048;-74
2023/09/11 03:55:46;;;;;;;27.63;12.70;;;20.40;99.90;;;;;;5061288;28;20097;-73
2023/09/11 03:58:16;;;;;;;43.72;12.43;;;20.40;99.90;;;;;;5057646;28;20094;-74
2023/09/11 04:00:41;;;;;;;29.40;13.27;;;20.40;99.90;;;;;;5062066;28;20048;-75
2023/09/11 04:03:07;;;;;;;28.42;12.77;;;20.40;99.90;;;;;;5056975;28;20086;-75
2023/09/11 04:05:33;;;;;;;26.73;12.50;;;20.40;99.90;;;;;;5056048;28;20041;-75
2023/09/11 04:07:59;;;;;;;32.78;12.88;;;20.30;99.90;;;;;;5053085;28;20076;-74
2023/09/11 04:10:25;;;;;;;26.50;12.68;;;20.40;99.90;;;;;;5058024;28;20489;-75
2023/09/11 04:12:51;;;;;;;30.88;13.02;;;20.30;99.90;;;;;;5054283;28;20908;-75
2023/09/11 04:15:17;;;;;;;26.50;12.55;;;20.30;99.90;;;;;;5049758;28;20132;-74
2023/09/11 04:17:46;;;;;;;28.60;12.82;;;20.30;99.90;;;;;;5057617;28;20097;-74
2023/09/11 04:20:11;;;;;;;29.55;13.93;;;20.30;99.90;;;;;;5055388;28;20414;-75
2023/09/11 04:22:37;;;;;;;22.70;13.25;;;20.30;99.90;;;;;;5051452;28;20040;-74
2023/09/11 04:25:03;;;;;;;25.35;12.27;;;20.30;99.90;;;;;;5058429;28;20052;-75
2023/09/11 04:27:29;;;;;;;26.95;13.43;;;20.30;99.90;;;;;;5065634;28;20032;-74
2023/09/11 04:29:56;;;;;;;31.40;13.90;;;20.30;99.90;;;;;;5059563;28;20055;-74
2023/09/11 04:32:22;;;;;;;27.08;12.25;;;20.30;99.90;;;;;;5050696;28;20448;-74
2023/09/11 04:34:47;;;;;;;24.30;12.10;;;20.30;99.90;;;;;;5057914;28;20033;-74
2023/09/11 04:37:16;;;;;;;23.98;12.93;;;20.20;99.90;;;;;;5055495;28;21815;-74
2023/09/11 04:39:42;;;;;;;28.20;12.80;;;20.20;99.90;;;;;;5056852;28;20362;-74
2023/09/11 04:42:07;;;;;;;31.80;13.75;;;20.20;99.90;;;;;;5052277;28;20044;-74
2023/09/11 04:44:33;;;;;;;26.75;12.05;;;20.20;99.90;;;;;;5050579;28;20081;-74
2023/09/11 04:46:59;;;;;;;29.02;12.80;;;20.20;99.90;;;;;;5064532;28;20064;-74
2023/09/11 04:49:25;;;;;;;21.73;12.02;;;20.20;99.90;;;;;;5055166;28;20029;-74
2023/09/11 04:51:52;;;;;;;33.05;13.20;;;20.20;99.90;;;;;;5065710;28;20072;-74
2023/09/11 04:54:17;;;;;;;30.48;12.10;;;20.10;99.90;;;;;;5034555;28;20044;-74
2023/09/11 04:56:46;;;;;;;27.02;13.48;;;20.10;99.90;;;;;;5058703;28;20040;-74
2023/09/11 04:59:11;;;;;;;32.60;13.68;;;20.20;99.90;;;;;;5057667;28;20119;-75
2023/09/11 05:01:37;;;;;;;33.15;13.30;;;20.10;99.90;;;;;;5056555;28;20597;-74
2023/09/11 05:04:03;;;;;;;27.52;12.68;;;20.10;99.90;;;;;;5059998;28;20090;-74
2023/09/11 05:06:30;;;;;;;26.58;13.38;;;20.10;99.90;;;;;;5062057;28;20043;-75
2023/09/11 05:08:56;;;;;;;25.80;13.88;;;20.20;99.90;;;;;;5047862;28;20427;-74
2023/09/11 05:11:21;;;;;;;26.05;13.00;;;20.10;99.90;;;;;;5045658;28;20150;-74
2023/09/11 05:13:47;;;;;;;35.28;12.75;;;20.10;99.90;;;;;;5045068;28;20047;-74
2023/09/11 05:16:13;;;;;;;31.55;12.77;;;20.10;99.90;;;;;;5047769;28;20036;-74
2023/09/11 05:18:39;;;;;;;27.80;13.00;;;20.20;99.90;;;;;;5047575;28;20082;-74
2023/09/11 05:21:04;;;;;;;23.88;12.05;;;20.20;99.90;;;;;;5046975;28;20498;-74
2023/09/11 05:23:30;;;;;;;20.23;11.90;;;20.20;99.90;;;;;;5045241;28;20041;-75
2023/09/11 05:25:56;;;;;;;29.85;12.95;;;20.20;99.90;;;;;;5035135;28;20090;-73
2023/09/11 05:28:22;;;;;;;26.13;13.05;;;20.20;99.90;;;;;;5044312;28;20049;-73
2023/09/11 05:30:49;;;;;;;28.95;12.43;;;20.20;99.90;;;;;;5047477;28;20055;-74
2023/09/11 05:33:15;;;;;;;25.55;12.32;;;20.20;99.90;;;;;;5044197;28;20040;-73
2023/09/11 05:35:44;;;;;;;30.65;13.13;;;20.20;99.90;;;;;;5037623;28;20041;-74
2023/09/11 05:38:10;;;;;;;25.70;12.43;;;20.20;99.90;;;;;;5039148;28;20041;-74
2023/09/11 05:40:36;;;;;;;29.15;12.90;;;20.30;99.90;;;;;;5051626;28;20045;-74
2023/09/11 05:43:02;;;;;;;28.08;13.27;;;20.20;99.90;;;;;;5052983;28;20045;-73
2023/09/11 05:45:27;;;;;;;34.50;13.85;;;20.30;99.90;;;;;;5053090;28;20052;-74
2023/09/11 05:47:53;;;;;;;31.08;12.43;;;20.30;99.90;;;;;;5051997;28;20060;-74
2023/09/11 05:50:19;;;;;;;31.25;13.75;;;20.30;99.90;;;;;;5060635;28;20045;-76
2023/09/11 05:52:44;;;;;;;34.90;13.27;;;20.30;99.90;;;;;;5050275;28;21024;-75
2023/09/11 05:55:10;;;;;;;34.03;13.80;;;20.40;99.90;;;;;;5056447;28;20040;-76
2023/09/11 05:57:36;;;;;;;28.67;12.85;;;20.40;99.90;;;;;;5043093;28;20045;-75
2023/09/11 06:00:09;;;;;;;27.92;13.65;;;20.50;99.90;;;;;;5048684;28;20036;-75
2023/09/11 06:02:35;;;;;;;27.98;13.75;;;20.50;99.90;;;;;;5052143;28;20048;-75
2023/09/11 06:05:01;;;;;;;32.70;13.23;;;20.50;99.90;;;;;;5053466;28;20041;-75
2023/09/11 06:07:27;;;;;;;29.23;13.13;;;20.50;99.90;;;;;;5050624;28;20573;-74
2023/09/11 06:09:53;;;;;;;30.52;13.30;;;20.50;99.90;;;;;;5054413;28;20052;-71
2023/09/11 06:12:18;;;;;;;27.45;13.07;;;20.60;99.90;;;;;;5061896;28;20060;-73
2023/09/11 06:14:44;;;;;;;26.42;13.05;;;20.60;99.90;;;;;;5051146;28;20033;-73
2023/09/11 06:17:15;;;;;;;34.72;12.65;;;20.70;99.90;;;;;;5051239;28;20106;-73
2023/09/11 06:19:41;;;;;;;24.33;11.30;;;20.70;99.90;;;;;;5051798;28;20402;-74
2023/09/11 06:22:06;;;;;;;33.22;13.23;;;20.70;99.90;;;;;;5044890;28;20041;-74
2023/09/11 06:24:32;;;;;;;24.02;13.00;;;20.80;99.90;;;;;;5061027;28;20048;-74
2023/09/11 06:27:06;;;;;;;29.10;13.05;;;20.80;99.90;;;;;;5057575;28;20049;-74
2023/09/11 06:29:32;;;;;;;26.02;12.25;;;20.80;99.90;;;;;;5046555;28;20128;-74
2023/09/11 06:31:57;;;;;;;30.88;12.90;;;20.90;99.90;;;;;;5049279;28;20163;-74
2023/09/11 06:34:23;;;;;;;28.52;13.43;;;20.90;99.90;;;;;;5052374;28;20036;-74
2023/09/11 06:36:52;;;;;;;29.23;13.93;;;21.00;99.90;;;;;;5065927;28;20048;-74
2023/09/11 06:39:19;;;;;;;25.25;12.63;;;21.00;99.90;;;;;;5058667;28;20037;-74
2023/09/11 06:41:45;;;;;;;29.40;13.27;;;21.00;99.90;;;;;;5057508;28;20099;-74
2023/09/11 06:44:11;;;;;;;28.70;13.55;;;21.10;99.90;;;;;;5059863;28;20037;-74
2023/09/11 06:46:36;;;;;;;24.58;12.18;;;21.10;99.90;;;;;;5055429;28;20045;-74
2023/09/11 06:49:03;;;;;;;29.38;12.73;;;21.10;99.90;;;;;;5056318;28;20543;-74
2023/09/11 06:51:29;;;;;;;25.05;12.07;;;21.20;99.90;;;;;;5053955;28;20045;-74
2023/09/11 06:53:54;;;;;;;23.70;13.77;;;21.20;99.90;;;;;;5052752;28;20044;-74
2023/09/11 06:56:20;;;;;;;27.38;12.35;;;21.30;99.90;;;;;;5064589;28;20497;-74
2023/09/11 06:58:46;;;;;;;21.70;11.68;;;21.30;99.90;;;;;;5065292;28;20045;-74
2023/09/11 07:01:15;;;;;;;24.77;12.15;;;21.30;99.90;;;;;;5058355;28;20047;-74
2023/09/11 07:03:41;;;;;;;30.20;12.60;;;21.40;99.90;;;;;;5055450;28;20032;-74
2023/09/11 07:06:07;;;;;;;28.27;12.82;;;21.50;99.90;;;;;;5056202;28;20051;-74
2023/09/11 07:08:33;;;;;;;32.75;11.80;;;21.60;99.90;;;;;;5055479;28;20064;-75
2023/09/11 07:10:59;;;;;;;23.65;12.25;;;21.60;99.90;;;;;;5057232;28;20041;-71
2023/09/11 07:13:25;;;;;;;20.50;12.70;;;21.70;99.90;;;;;;5054956;28;20071;-72
2023/09/11 07:16:01;;;;;;;17.40;10.57;;;21.80;99.90;;;;;;5055117;28;20086;-72
2023/09/11 07:18:27;;;;;;;23.25;11.65;;;21.90;99.90;;;;;;5052777;28;20044;-71
2023/09/11 07:20:54;;;;;;;25.05;12.95;;;22.00;99.90;;;;;;5068324;28;20087;-71
2023/09/11 07:23:22;;;;;;;21.38;11.48;;;22.10;99.90;;;;;;5057495;28;20555;-72
2023/09/11 07:25:47;;;;;;;27.98;11.68;;;22.30;99.90;;;;;;5052169;28;20451;-71
2023/09/11 07:28:14;;;;;;;24.83;11.07;;;22.30;99.90;;;;;;5053742;28;20110;-71
2023/09/11 07:30:40;;;;;;;20.10;11.35;;;22.40;99.90;;;;;;5054232;28;20036;-71
2023/09/11 07:33:06;;;;;;;26.25;11.30;;;22.60;99.90;;;;;;5059889;28;20630;-72
2023/09/11 07:35:31;;;;;;;26.73;11.02;;;22.70;99.90;;;;;;5061318;28;20049;-72
2023/09/11 07:37:57;;;;;;;25.50;11.38;;;22.80;99.90;;;;;;5064545;28;20170;-72
2023/09/11 07:40:23;;;;;;;22.05;10.68;;;22.90;99.90;;;;;;5067473;28;20036;-71
2023/09/11 07:42:49;;;;;;;28.25;10.40;;;23.10;99.90;;;;;;5063273;28;20090;-71
2023/09/11 07:45:14;;;;;;;21.63;9.88;;;23.10;99.90;;;;;;5058455;28;20440;-72
2023/09/11 07:47:40;;;;;;;19.63;11.18;;;23.20;99.90;;;;;;5051080;28;20040;-71
2023/09/11 07:50:06;;;;;;;19.77;10.63;;;23.20;99.90;;;;;;5057986;28;20140;-71
2023/09/11 07:52:32;;;;;;;23.77;10.55;;;23.40;99.90;;;;;;5064838;28;20044;-71
2023/09/11 07:54:58;;;;;;;19.30;9.63;;;23.40;99.90;;;;;;5065804;28;20512;-70
2023/09/11 07:57:24;;;;;;;21.25;9.52;;;23.50;99.90;;;;;;5062840;28;20493;-71
2023/09/11 07:59:50;;;;;;;17.50;9.73;;;23.70;99.90;;;;;;5062550;28;20039;-71
2023/09/11 08:02:16;;;;;;;16.00;9.40;;;23.70;99.90;;;;;;5059702;28;20040;-71
2023/09/11 08:04:42;;;;;;;19.05;9.20;;;23.80;99.90;;;;;;5061326;28;20171;-72
2023/09/11 08:07:07;;;;;;;19.38;9.23;;;23.90;99.90;;;;;;5064208;28;20157;-71
2023/09/11 08:09:34;;;;;;;19.55;9.07;;;24.00;99.90;;;;;;5058277;28;20056;-71
2023/09/11 08:12:00;;;;;;;17.80;9.00;;;24.10;99.90;;;;;;5053583;28;20122;-70
2023/09/11 08:14:26;;;;;;;25.38;9.15;;;24.20;99.90;;;;;;5057024;28;20774;-72
2023/09/11 08:16:52;;;;;;;23.13;8.20;;;24.30;99.90;;;;;;5046993;28;20124;-71
2023/09/11 08:19:17;;;;;;;24.92;9.57;;;24.40;99.90;;;;;;5058902;28;20040;-71
2023/09/11 08:21:43;;;;;;;19.35;8.23;;;24.50;99.90;;;;;;5062934;28;20076;-71
2023/09/11 08:24:11;;;;;;;18.63;8.73;;;24.60;99.90;;;;;;5058717;28;20124;-71
2023/09/11 08:26:38;;;;;;;19.77;8.70;;;24.70;99.90;;;;;;5056387;28;20053;-71
2023/09/11 08:29:04;;;;;;;20.02;8.30;;;24.80;99.90;;;;;;5054325;28;20055;-71
2023/09/11 08:31:30;;;;;;;19.52;7.95;;;24.80;99.90;;;;;;5064414;28;20040;-71
2023/09/11 08:33:55;;;;;;;18.90;8.73;;;24.90;99.90;;;;;;5065295;28;20047;-75
2023/09/11 08:36:22;;;;;;;18.40;8.10;;;25.00;99.90;;;;;;5062777;28;20041;-75
2023/09/11 08:38:47;;;;;;;18.50;8.63;;;25.10;99.90;;;;;;5055158;28;20072;-75
2023/09/11 08:41:14;;;;;;;19.23;8.73;;;25.20;99.90;;;;;;5063384;28;21239;-74
2023/09/11 08:43:40;;;;;;;15.73;8.60;;;25.30;99.90;;;;;;5061472;28;20068;-74
2023/09/11 08:46:14;;;;;;;19.35;8.80;;;25.30;99.90;;;;;;5061411;28;20072;-74
2023/09/11 08:48:47;;;;;;;21.17;8.75;;;25.40;99.90;;;;;;5062204;28;20098;-75
2023/09/11 08:51:34;;;;;;;19.73;9.23;;;25.50;99.90;;;;;;5056275;28;20064;-75
2023/09/11 08:54:03;;;;;;;18.48;7.88;;;25.60;99.90;;;;;;5060828;28;20528;-75
2023/09/11 08:56:30;;;;;;;16.85;7.65;;;25.70;99.90;;;;;;5054669;28;20457;-74
2023/09/11 08:58:57;;;;;;;18.55;7.85;;;25.70;99.90;;;;;;5055380;28;20052;-74
2023/09/11 09:01:24;;;;;;;15.63;7.97;;;25.80;99.90;;;;;;5064085;28;20493;-74
2023/09/11 09:03:51;;;;;;;18.95;7.95;;;25.80;99.90;;;;;;5057675;28;20041;-75
2023/09/11 09:06:18;;;;;;;17.70;8.02;;;25.90;99.90;;;;;;5047534;28;20056;-75
2023/09/11 09:08:45;;;;;;;17.58;8.00;;;25.90;99.90;;;;;;5047932;28;20059;-76
2023/09/11 09:11:12;;;;;;;22.35;9.02;;;26.00;99.90;;;;;;5050873;28;20782;-75
2023/09/11 09:13:38;;;;;;;17.42;8.90;;;26.00;99.90;;;;;;5050662;28;20033;-75
2023/09/11 09:16:04;;;;;;;19.92;8.82;;;26.10;99.90;;;;;;5048791;28;20498;-75
2023/09/11 09:18:30;;;;;;;22.40;9.93;;;26.10;99.90;;;;;;5064958;28;20390;-75
2023/09/11 09:20:56;;;;;;;17.92;8.70;;;26.10;99.90;;;;;;5065338;28;20043;-75
2023/09/11 09:23:39;;;;;;;20.30;9.25;;;26.20;99.90;;;;;;5062437;28;20158;-75
2023/09/11 09:26:09;;;;;;;22.85;9.50;;;26.30;99.90;;;;;;5059662;28;20052;-75
2023/09/11 09:28:51;;;;;;;15.20;8.52;;;26.30;99.90;;;;;;5062932;28;20101;-76
2023/09/11 09:31:25;;;;;;;20.17;9.40;;;26.40;99.90;;;;;;5065908;28;20055;-75
2023/09/11 09:33:52;;;;;;;19.20;7.63;;;26.40;99.90;;;;;;5053341;28;20048;-72
2023/09/11 09:36:18;;;;;;;19.75;9.52;;;26.40;99.90;;;;;;5044020;28;20047;-72
2023/09/11 09:38:44;;;;;;;18.83;8.85;;;26.50;99.90;;;;;;5053032;28;20064;-73
2023/09/11 09:41:10;;;;;;;14.25;8.45;;;26.60;99.90;;;;;;5054545;28;20072;-74
2023/09/11 09:43:36;;;;;;;16.83;9.50;;;26.60;99.90;;;;;;5051380;28;20028;-73
2023/09/11 09:46:20;;;;;;;17.55;9.13;;;26.70;99.90;;;;;;5051239;28;20520;-73
2023/09/11 09:48:46;;;;;;;17.15;8.68;;;26.70;99.90;;;;;;5053899;28;20056;-75
2023/09/11 09:51:13;;;;;;;14.98;8.85;;;26.70;99.90;;;;;;5052833;28;20044;-75
2023/09/11 09:53:46;;;;;;;15.85;9.05;;;26.70;99.90;;;;;;5053020;28;20140;-72
2023/09/11 09:56:13;;;;;;;21.55;10.18;;;26.80;99.90;;;;;;5052287;28;21243;-73
2023/09/11 09:58:41;;;;;;;17.58;10.45;;;26.80;99.90;;;;;;5052779;28;21110;-73
2023/09/11 10:01:08;;;;;;;17.25;9.50;;;26.90;99.90;;;;;;5051961;28;20071;-72
2023/09/11 10:03:46;;;;;;;16.25;10.23;;;26.90;99.90;;;;;;5056168;28;20501;-75
2023/09/11 10:06:26;;;;;;;24.08;10.93;;;26.90;99.90;;;;;;5043158;28;20500;-74
2023/09/11 10:09:09;;;;;;;20.60;10.90;;;27.00;99.90;;;;;;5052476;28;20056;-73
2023/09/11 10:11:36;;;;;;;21.13;11.57;;;27.10;99.90;;;;;;5044816;28;20507;-73
2023/09/11 10:14:04;;;;;;;19.20;11.05;;;27.10;99.90;;;;;;5052017;28;20080;-73
2023/09/11 10:16:30;;;;;;;20.17;11.43;;;27.10;99.90;;;;;;5051536;28;20048;-73
2023/09/11 10:18:58;;;;;;;19.02;11.27;;;27.10;99.90;;;;;;5051601;28;20144;-73
2023/09/11 10:21:25;;;;;;;19.60;11.27;;;27.20;99.90;;;;;;5053779;28;20037;-74
2023/09/11 10:23:54;;;;;;;17.02;10.48;;;27.20;99.90;;;;;;5053572;28;20447;-74
2023/09/11 10:26:36;;;;;;;18.90;10.75;;;27.20;99.90;;;;;;5052826;28;20076;-73
2023/09/11 10:29:09;;;;;;;18.17;11.02;;;27.20;99.90;;;;;;5050679;28;20060;-73
2023/09/11 10:32:18;;;;;;;19.50;11.45;;;27.20;99.90;;;;;;5053909;28;20076;-73
2023/09/11 10:34:47;;;;;;;20.15;11.55;;;27.30;99.90;;;;;;5050050;28;20040;-74
2023/09/11 10:37:14;;;;;;;18.70;11.60;;;27.30;99.90;;;;;;5051467;28;20084;-74
2023/09/11 10:39:40;;;;;;;24.38;11.35;;;27.30;99.90;;;;;;5059367;28;20458;-73
2023/09/11 10:42:06;;;;;;;18.67;10.20;;;27.30;99.90;;;;;;5051751;28;20676;-74
2023/09/11 10:44:36;;;;;;;23.58;10.82;;;27.30;99.90;;;;;;5058379;28;20375;-74
2023/09/11 10:47:04;;;;;;;20.73;9.53;;;27.40;99.90;;;;;;5061328;28;20040;-74
2023/09/11 10:49:40;;;;;;;19.13;9.77;;;27.40;99.90;;;;;;5061188;28;20395;-75
2023/09/11 10:52:08;;;;;;;13.95;10.00;;;27.50;99.90;;;;;;5064498;28;20049;-75
2023/09/11 10:54:35;;;;;;;17.48;10.15;;;27.50;99.90;;;;;;5057627;28;20083;-75
2023/09/11 10:57:01;;;;;;;16.35;9.57;;;27.50;99.90;;;;;;5065454;28;20044;-74
2023/09/11 10:59:28;;;;;;;15.40;9.82;;;27.50;99.90;;;;;;5066985;28;20456;-74
2023/09/11 11:01:54;;;;;;;18.33;9.48;;;27.50;99.90;;;;;;5051334;28;20044;-74
2023/09/11 11:04:23;;;;;;;17.60;10.00;;;27.60;99.90;;;;;;5059658;28;20040;-74
2023/09/11 11:06:54;;;;;;;14.30;11.20;;;27.60;99.90;;;;;;5064890;28;20116;-74
2023/09/11 11:09:29;;;;;;;17.75;12.00;;;27.60;99.90;;;;;;5058948;28;20044;-74
2023/09/11 11:12:01;;;;;;;16.45;12.10;;;27.60;99.90;;;;;;5053900;28;20051;-74
2023/09/11 11:14:27;;;;;;;21.58;13.15;;;27.70;99.90;;;;;;5050382;28;20076;-74
2023/09/11 11:17:05;;;;;;;19.00;12.10;;;27.70;99.90;;;;;;5067561;28;20071;-74
2023/09/11 11:19:37;;;;;;;18.80;11.02;;;27.70;99.90;;;;;;5070457;28;20128;-75
2023/09/11 11:22:06;;;;;;;25.05;12.38;;;27.70;99.90;;;;;;5058324;28;21252;-74
2023/09/11 11:24:48;;;;;;;16.98;10.68;;;27.80;99.90;;;;;;5066731;28;20045;-74
2023/09/11 11:27:14;;;;;;;15.68;10.38;;;27.80;99.90;;;;;;5068313;28;20044;-74
2023/09/11 11:29:40;;;;;;;18.40;10.90;;;27.80;99.90;;;;;;5058395;28;20239;-74
2023/09/11 11:32:10;;;;;;;18.38;12.30;;;27.90;99.90;;;;;;5059536;28;20186;-73
2023/09/11 11:34:45;;;;;;;20.33;12.73;;;27.90;99.90;;;;;;5062261;28;20048;-75
2023/09/11 11:37:11;;;;;;;17.27;11.07;;;28.00;99.90;;;;;;5056941;28;20075;-74
2023/09/11 11:39:38;;;;;;;16.83;8.98;;;28.00;99.90;;;;;;5063342;28;20548;-75
2023/09/11 11:42:06;;;;;;;16.95;9.50;;;28.00;99.90;;;;;;5070235;28;20082;-74
2023/09/11 11:44:34;;;;;;;13.23;7.60;;;28.10;99.90;;;;;;5059244;28;20071;-75
2023/09/11 11:47:01;;;;;;;10.88;5.10;;;28.10;99.90;;;;;;5055149;28;20041;-74
2023/09/11 11:49:27;;;;;;;13.00;5.72;;;28.10;99.90;;;;;;5053165;28;20186;-74
2023/09/11 11:51:53;;;;;;;10.70;5.60;;;28.10;99.90;;;;;;5058891;28;20071;-76
2023/09/11 11:54:24;;;;;;;10.93;4.57;;;28.10;99.90;;;;;;5048757;28;20064;-74
2023/09/11 11:57:08;;;;;;;9.55;5.30;;;28.10;99.90;;;;;;5061309;28;20127;-75
2023/09/11 11:59:38;;;;;;;10.82;4.72;;;28.10;99.90;;;;;;5060604;28;20132;-73
2023/09/11 12:02:05;;;;;;;11.57;4.57;;;28.10;99.90;;;;;;5053662;28;20063;-73
2023/09/11 12:04:30;;;;;;;9.63;4.90;;;28.10;99.90;;;;;;5059992;28;20451;-74
2023/09/11 12:07:02;;;;;;;10.50;4.40;;;28.10;99.90;;;;;;5056674;28;20098;-74
2023/09/11 12:09:29;;;;;;;10.93;5.22;;;28.10;99.90;;;;;;5058313;28;20048;-74
2023/09/11 12:11:55;;;;;;;10.43;5.18;;;28.10;99.90;;;;;;5061205;28;20052;-74
2023/09/11 12:14:21;;;;;;;10.77;5.15;;;28.10;99.90;;;;;;5058851;28;20098;-73
2023/09/11 12:16:46;;;;;;;12.25;5.63;;;28.20;99.90;;;;;;5048642;28;20044;-74
2023/09/11 12:19:13;;;;;;;12.02;5.13;;;28.20;99.90;;;;;;5051879;28;20044;-74
2023/09/11 12:21:41;;;;;;;11.07;5.03;;;28.20;99.90;;;;;;5049027;28;20110;-74
2023/09/11 12:24:09;;;;;;;16.05;5.40;;;28.20;99.90;;;;;;5051419;28;20044;-74
2023/09/11 12:26:36;;;;;;;14.77;6.55;;;28.30;99.90;;;;;;5054437;28;20041;-74
2023/09/11 12:29:03;;;;;;;10.10;5.57;;;28.30;99.90;;;;;;5056572;28;20512;-74
2023/09/11 12:31:30;;;;;;;13.00;4.90;;;28.40;99.90;;;;;;5055055;28;20045;-75
2023/09/11 12:33:59;;;;;;;14.85;4.50;;;28.40;99.90;;;;;;5057075;28;20063;-74